createdAt,value
2023-08-16T00:00:25.466Z,100.00
2023-08-16T00:05:27.157Z,100.00
2023-08-16T00:10:28.840Z,100.00
2023-08-16T00:15:30.609Z,100.00
2023-08-16T00:20:32.362Z,100.00
2023-08-16T00:25:34.043Z,100.00
2023-08-16T00:30:35.759Z,100.00
2023-08-16T00:35:37.497Z,100.00
2023-08-16T00:40:39.187Z,100.00
2023-08-16T00:45:43.383Z,100.00
2023-08-16T00:50:46.317Z,100.00
2023-08-16T00:55:48.110Z,100.00
2023-08-16T01:00:50.133Z,100.00
2023-08-16T01:05:51.810Z,100.00
2023-08-16T01:10:56.018Z,100.00
2023-08-16T01:16:00.496Z,100.00
2023-08-16T01:21:02.549Z,100.00
2023-08-16T01:26:10.800Z,100.00
2023-08-16T01:31:12.773Z,100.00
2023-08-16T01:36:15.989Z,100.00
2023-08-16T01:41:28.646Z,100.00
2023-08-16T01:46:31.152Z,100.00
2023-08-16T01:51:33.106Z,100.00
2023-08-16T01:56:34.865Z,100.00
2023-08-16T02:01:36.642Z,100.00
2023-08-16T02:06:38.386Z,100.00
2023-08-16T02:11:40.053Z,100.00
2023-08-16T02:16:41.722Z,100.00
2023-08-16T02:21:43.631Z,100.00
2023-08-16T02:26:45.299Z,100.00
2023-08-16T02:31:46.975Z,100.00
2023-08-16T02:36:49.010Z,100.00
2023-08-16T02:41:54.780Z,100.00
2023-08-16T02:46:56.434Z,100.00
2023-08-16T02:51:59.136Z,100.00
2023-08-16T02:57:00.949Z,100.00
2023-08-16T03:02:02.637Z,100.00
2023-08-16T03:07:04.533Z,100.00
2023-08-16T03:12:06.995Z,100.00
2023-08-16T03:17:08.751Z,100.00
2023-08-16T03:22:11.460Z,100.00
2023-08-16T03:27:13.350Z,100.00
2023-08-16T03:32:15.229Z,100.00
2023-08-16T03:37:17.158Z,100.00
2023-08-16T03:42:20.944Z,100.00
2023-08-16T03:47:25.626Z,100.00
2023-08-16T03:52:28.802Z,100.00
2023-08-16T03:57:30.507Z,100.00
2023-08-16T04:02:32.161Z,100.00
2023-08-16T04:07:34.067Z,100.00
2023-08-16T04:12:37.835Z,100.00
2023-08-16T04:17:40.242Z,100.00
2023-08-16T04:22:42.098Z,100.00
2023-08-16T04:27:44.272Z,100.00
2023-08-16T04:32:46.018Z,100.00
2023-08-16T04:37:47.820Z,100.00
2023-08-16T04:42:49.721Z,100.00
2023-08-16T04:47:51.455Z,100.00
2023-08-16T04:52:54.287Z,100.00
2023-08-16T04:57:59.309Z,100.00
2023-08-16T05:03:01.233Z,100.00
2023-08-16T05:08:05.260Z,100.00
2023-08-16T05:13:06.950Z,100.00
2023-08-16T05:18:08.682Z,100.00
2023-08-16T05:23:10.470Z,100.00
2023-08-16T05:28:12.330Z,100.00
2023-08-16T05:33:14.113Z,100.00
2023-08-16T05:38:15.822Z,100.00
2023-08-16T05:43:17.463Z,100.00
2023-08-16T05:48:19.171Z,100.00
2023-08-16T05:53:20.858Z,100.00
2023-08-16T05:58:22.544Z,100.00
2023-08-16T06:03:24.298Z,100.00
2023-08-16T06:08:26.011Z,100.00
2023-08-16T06:13:27.691Z,100.00
2023-08-16T06:18:29.461Z,100.00
2023-08-16T06:23:31.137Z,100.00
2023-08-16T06:28:32.837Z,99.36
2023-08-16T06:33:34.564Z,98.84
2023-08-16T06:38:36.262Z,99.38
2023-08-16T06:43:37.932Z,99.39
2023-08-16T06:48:39.703Z,98.65
2023-08-16T06:53:43.580Z,98.66
2023-08-16T06:58:45.302Z,98.49
2023-08-16T07:03:49.350Z,98.25
2023-08-16T07:08:51.672Z,97.48
2023-08-16T07:13:53.578Z,96.71
2023-08-16T07:18:55.260Z,96.73
2023-08-16T07:23:57.051Z,96.32
2023-08-16T07:28:58.721Z,96.25
2023-08-16T07:34:00.397Z,94.88
2023-08-16T07:39:02.210Z,93.15
2023-08-16T07:44:04.415Z,92.80
2023-08-16T07:49:06.209Z,92.43
2023-08-16T07:54:07.917Z,91.78
2023-08-16T07:59:09.661Z,91.26
2023-08-16T08:04:11.382Z,89.62
2023-08-16T08:09:13.173Z,87.21
2023-08-16T08:14:14.928Z,87.07
2023-08-16T08:19:16.615Z,82.91
2023-08-16T08:24:18.791Z,82.14
2023-08-16T08:29:21.642Z,78.84
2023-08-16T08:34:25.161Z,78.32
2023-08-16T08:39:28.254Z,77.62
2023-08-16T08:44:30.131Z,77.75
2023-08-16T08:49:31.816Z,79.63
2023-08-16T08:54:33.633Z,79.54
2023-08-16T08:59:35.683Z,80.61
2023-08-16T09:04:37.910Z,79.64
2023-08-16T09:09:39.563Z,80.55
2023-08-16T09:14:41.263Z,79.79
2023-08-16T09:19:46.210Z,79.98
2023-08-16T09:24:49.864Z,78.86
2023-08-16T09:29:55.224Z,79.41
2023-08-16T09:34:57.629Z,79.42
2023-08-16T09:40:00.083Z,81.01
2023-08-16T09:45:02.440Z,80.22
2023-08-16T09:50:07.620Z,78.12
2023-08-16T09:55:10.368Z,77.38
2023-08-16T10:00:12.959Z,76.98
2023-08-16T10:10:22.231Z,75.55
2023-08-16T10:15:25.077Z,75.08
2023-08-16T10:20:28.011Z,74.04
2023-08-16T10:25:37.833Z,75.25
2023-08-16T10:31:12.369Z,76.14
2023-08-16T10:36:08.297Z,75.84
2023-08-16T10:41:15.215Z,76.81
2023-08-16T10:46:30.047Z,76.14
2023-08-16T10:51:31.892Z,74.93
2023-08-16T10:56:45.607Z,73.63
2023-08-16T11:01:49.505Z,72.28
2023-08-16T11:07:02.638Z,73.08
2023-08-16T11:12:05.200Z,74.26
2023-08-16T11:17:06.916Z,73.48
2023-08-16T11:22:11.744Z,75.65
2023-08-16T11:27:19.893Z,73.67
2023-08-16T11:32:38.532Z,72.13
2023-08-16T11:37:42.633Z,73.61
2023-08-16T11:42:44.487Z,73.69
2023-08-16T11:47:50.249Z,73.35
2023-08-16T11:53:02.846Z,72.34
2023-08-16T11:58:06.720Z,70.76
2023-08-16T12:03:10.569Z,70.54
2023-08-16T12:08:13.643Z,69.81
2023-08-16T12:13:15.994Z,69.62
2023-08-16T12:18:21.610Z,68.70
2023-08-16T12:23:23.612Z,68.67
2023-08-16T12:28:25.251Z,67.10
2023-08-16T12:33:27.042Z,66.48
2023-08-16T12:38:31.536Z,66.98
2023-08-16T12:43:35.947Z,65.68
2023-08-16T12:48:41.359Z,65.71
2023-08-16T12:53:44.326Z,66.70
2023-08-16T12:58:57.000Z,66.94
2023-08-16T13:04:00.921Z,65.86
2023-08-16T13:09:04.422Z,65.56
2023-08-16T13:14:11.510Z,65.85
2023-08-16T13:19:24.699Z,63.71
2023-08-16T13:29:35.508Z,63.68
2023-08-16T13:45:17.992Z,63.71
2023-08-16T13:50:21.102Z,63.91
2023-08-16T13:55:22.826Z,65.39
2023-08-16T14:00:25.843Z,65.74
2023-08-16T14:05:27.899Z,64.15
2023-08-16T14:10:31.533Z,62.78
2023-08-16T14:15:33.780Z,62.44
2023-08-16T14:20:39.965Z,62.55
2023-08-16T14:25:52.159Z,62.76
2023-08-16T14:30:53.897Z,62.39
2023-08-16T14:35:58.127Z,62.63
2023-08-16T14:40:59.855Z,61.81
2023-08-16T14:46:01.726Z,62.32
2023-08-16T14:51:03.501Z,62.22
2023-08-16T14:56:05.235Z,61.50
2023-08-16T15:01:07.843Z,61.35
2023-08-16T15:06:09.900Z,60.18
2023-08-16T15:11:16.205Z,61.86
2023-08-16T15:16:18.009Z,61.36
2023-08-16T15:21:19.764Z,62.41
2023-08-16T15:26:22.336Z,62.62
2023-08-16T15:31:24.084Z,63.59
2023-08-16T15:36:25.852Z,64.88
2023-08-16T15:41:27.496Z,64.50
2023-08-16T15:46:29.246Z,64.66
2023-08-16T15:51:30.933Z,64.77
2023-08-16T15:56:32.595Z,64.08
2023-08-16T16:01:34.336Z,64.20
2023-08-16T16:06:36.102Z,64.26
2023-08-16T16:11:37.752Z,63.94
2023-08-16T16:16:46.564Z,63.79
2023-08-16T16:21:48.373Z,63.99
2023-08-16T16:26:50.023Z,63.96
2023-08-16T16:31:52.911Z,64.08
2023-08-16T16:36:54.783Z,64.79
2023-08-16T16:41:57.922Z,64.18
2023-08-16T16:47:03.924Z,64.83
2023-08-16T16:52:05.742Z,64.32
2023-08-16T16:57:07.433Z,64.65
2023-08-16T17:02:09.118Z,65.32
2023-08-16T17:07:10.790Z,65.62
2023-08-16T17:12:12.557Z,64.99
2023-08-16T17:17:14.238Z,65.99
2023-08-16T17:22:15.961Z,65.84
2023-08-16T17:27:17.654Z,66.65
2023-08-16T17:32:19.305Z,66.81
2023-08-16T17:37:21.852Z,66.96
2023-08-16T17:42:23.743Z,67.16
2023-08-16T17:47:27.059Z,67.89
2023-08-16T17:52:29.039Z,67.77
2023-08-16T17:57:30.768Z,67.72
2023-08-16T18:02:33.783Z,68.39
2023-08-16T18:07:35.560Z,69.14
2023-08-16T18:12:37.283Z,69.32
2023-08-16T18:17:38.946Z,69.71
2023-08-16T18:22:41.622Z,70.10
2023-08-16T18:27:43.244Z,70.87
2023-08-16T18:32:44.938Z,70.81
2023-08-16T18:37:46.783Z,71.53
2023-08-16T18:42:48.501Z,71.70
2023-08-16T18:47:50.331Z,71.84
2023-08-16T18:52:52.186Z,72.23
2023-08-16T18:57:53.974Z,72.42
2023-08-16T19:02:55.718Z,72.51
2023-08-16T19:07:57.376Z,73.10
2023-08-16T19:12:59.159Z,73.94
2023-08-16T19:18:01.172Z,74.11
2023-08-16T19:23:03.201Z,74.81
2023-08-16T19:28:05.195Z,75.19
2023-08-16T19:33:06.963Z,75.76
2023-08-16T19:38:08.612Z,76.58
2023-08-16T19:43:10.309Z,76.78
2023-08-16T19:48:12.004Z,76.25
2023-08-16T19:53:13.679Z,75.85
2023-08-16T19:58:15.309Z,75.23
2023-08-16T20:03:17.051Z,75.09
2023-08-16T20:08:18.767Z,75.25
2023-08-16T20:13:20.411Z,75.87
2023-08-16T20:18:22.100Z,76.31
2023-08-16T20:23:23.787Z,77.55
2023-08-16T20:28:25.659Z,77.95
2023-08-16T20:33:27.512Z,77.96
2023-08-16T20:38:29.240Z,79.18
2023-08-16T20:43:30.999Z,79.32
2023-08-16T20:48:32.782Z,79.88
2023-08-16T20:53:34.501Z,80.44
2023-08-16T20:58:36.185Z,80.98
2023-08-16T21:03:37.825Z,81.72
2023-08-16T21:08:39.512Z,79.71
2023-08-16T21:13:41.212Z,78.72
2023-08-16T21:18:43.048Z,78.40
2023-08-16T21:23:44.772Z,77.76
2023-08-16T21:28:46.436Z,77.98
2023-08-16T21:33:48.083Z,78.14
2023-08-16T21:38:49.816Z,77.58
2023-08-16T21:43:51.530Z,77.06
2023-08-16T21:48:53.240Z,77.46
2023-08-16T21:53:54.878Z,77.28
2023-08-16T21:58:57.028Z,77.55
2023-08-16T22:03:58.833Z,77.45
2023-08-16T22:09:00.538Z,77.56
2023-08-16T22:14:02.221Z,77.82
2023-08-16T22:19:04.285Z,78.04
2023-08-16T22:24:06.445Z,78.82
2023-08-16T22:29:08.182Z,78.84
2023-08-16T22:34:09.955Z,79.78
2023-08-16T22:39:11.586Z,80.50
2023-08-16T22:44:13.285Z,81.06
2023-08-16T22:49:15.068Z,81.33
2023-08-16T22:54:16.781Z,82.13
2023-08-16T22:59:22.716Z,82.75
2023-08-16T23:04:24.437Z,83.27
2023-08-16T23:09:26.185Z,83.33
2023-08-16T23:14:28.052Z,83.67
2023-08-16T23:19:29.763Z,83.33
2023-08-16T23:24:31.445Z,83.56
2023-08-16T23:29:33.188Z,83.92
2023-08-16T23:34:34.882Z,84.37
2023-08-16T23:39:37.048Z,85.10
2023-08-16T23:44:38.776Z,85.66
2023-08-16T23:49:40.468Z,86.05
2023-08-16T23:54:42.489Z,86.55
2023-08-16T23:59:46.864Z,86.80
